Time;durP1;ratioP1;P1;durP2;ratioP2;P2;SDS_P1;SDS_P2;PMS_P1;PMS_P2;Temp;Humidity;BMP_temperature;BMP_pressure;BME280_temperature;BME280_humidity;BME280_pressure;Samples;Min_cycle;Max_cycle;Signal;HPM_P1;HPM_P2
2022/02/10 00:03:12;;;;;;;40.47;22.60;;;;;;;;;;4933527;29;20239;-88
2022/02/10 00:05:00;;;;;;;40.93;21.90;;;;;;;;;;4933910;28;20306;-88
2022/02/10 00:18:28;;;;;;;41.50;23.00;;;;;;;;;;4879830;29;20700;-88
2022/02/10 00:20:59;;;;;;;37.67;21.60;;;;;;;;;;4870766;29;20213;-88
2022/02/10 00:23:40;;;;;;;39.27;21.03;;;;;;;;;;4865283;29;20254;-88
2022/02/10 00:34:26;;;;;;;40.87;22.33;;;;;;;;;;4879401;29;20252;-88
2022/02/10 00:37:04;;;;;;;42.27;21.40;;;;;;;;;;4953997;28;20359;-88
2022/02/10 00:39:55;;;;;;;39.33;23.33;;;;;;;;;;4953386;28;20206;-87
2022/02/10 00:42:22;;;;;;;39.27;22.03;;;;;;;;;;4954512;28;20215;-88
2022/02/10 00:44:50;;;;;;;36.83;21.37;;;;;;;;;;4939862;28;20611;-88
2022/02/10 00:47:18;;;;;;;37.20;21.53;;;;;;;;;;4976543;28;20212;-88
2022/02/10 00:49:47;;;;;;;35.40;21.30;;;;;;;;;;4993546;28;20216;-88
2022/02/10 00:52:14;;;;;;;43.10;23.00;;;;;;;;;;4993359;28;20268;-88
2022/02/10 00:54:42;;;;;;;41.10;23.33;;;;;;;;;;5005257;28;20683;-88
2022/02/10 00:57:09;;;;;;;41.17;23.10;;;;;;;;;;5073289;28;20244;-87
2022/02/10 00:59:49;;;;;;;43.60;23.20;;;;;;;;;;5089664;28;20732;-88
2022/02/10 01:10:55;;;;;;;49.20;25.63;;;;;;;;;;5042952;28;20232;-88
2022/02/10 01:13:42;;;;;;;47.57;25.83;;;;;;;;;;5031263;28;20622;-87
2022/02/10 01:24:33;;;;;;;53.60;27.07;;;;;;;;;;5044302;28;20701;-88
2022/02/10 01:29:46;;;;;;;48.23;26.30;;;;;;;;;;5050788;28;20250;-88
2022/02/10 01:32:15;;;;;;;49.33;27.00;;;;;;;;;;5051133;28;20201;-88
2022/02/10 01:34:48;;;;;;;48.43;25.40;;;;;;;;;;5045011;28;20203;-88
2022/02/10 01:37:15;;;;;;;46.43;25.20;;;;;;;;;;5037533;28;20205;-88
2022/02/10 01:39:48;;;;;;;51.70;26.50;;;;;;;;;;5057917;28;20201;-88
2022/02/10 02:04:31;;;;;;;45.27;24.77;;;;;;;;;;5050098;28;20213;-89
2022/02/10 02:07:00;;;;;;;45.37;25.07;;;;;;;;;;5049814;28;20202;-89
2022/02/10 02:09:27;;;;;;;43.10;24.80;;;;;;;;;;5050108;28;20221;-88
2022/02/10 02:11:58;;;;;;;43.37;24.60;;;;;;;;;;5050166;28;20207;-88
2022/02/10 02:14:27;;;;;;;39.20;23.17;;;;;;;;;;5045822;28;20229;-88
2022/02/10 02:16:55;;;;;;;38.67;22.43;;;;;;;;;;5064277;28;20228;-89
2022/02/10 02:19:23;;;;;;;39.30;22.20;;;;;;;;;;5075344;28;20340;-89
2022/02/10 02:21:50;;;;;;;37.80;22.63;;;;;;;;;;5076536;28;20200;-89
2022/02/10 02:24:22;;;;;;;34.60;21.03;;;;;;;;;;5076702;28;20224;-89
2022/02/10 02:26:50;;;;;;;36.90;21.03;;;;;;;;;;5081838;28;20266;-89
2022/02/10 02:29:24;;;;;;;39.50;20.50;;;;;;;;;;5080110;28;20240;-89
2022/02/10 02:31:56;;;;;;;32.87;19.23;;;;;;;;;;5076261;28;20239;-89
2022/02/10 02:37:27;;;;;;;36.73;21.57;;;;;;;;;;5074241;28;20206;-88
2022/02/10 03:07:46;;;;;;;27.33;17.73;;;;;;;;;;5010756;28;20571;-88
2022/02/10 03:10:42;;;;;;;24.27;16.43;;;;;;;;;;5013850;28;20195;-88
2022/02/10 03:13:14;;;;;;;25.57;15.20;;;;;;;;;;5018541;28;20637;-88
2022/02/10 03:15:55;;;;;;;25.57;15.63;;;;;;;;;;5033256;28;20199;-87
2022/02/10 03:18:34;;;;;;;26.63;16.90;;;;;;;;;;5036354;28;20301;-87
2022/02/10 04:07:58;;;;;;;30.57;19.53;;;;;;;;;;5074641;28;20200;-88
2022/02/10 04:13:24;;;;;;;26.30;16.70;;;;;;;;;;5057944;28;20206;-88
2022/02/10 04:15:59;;;;;;;25.97;15.80;;;;;;;;;;5074125;28;20227;-88
2022/02/10 04:19:14;;;;;;;23.43;14.73;;;;;;;;;;5073796;28;20689;-88
2022/02/10 04:21:43;;;;;;;21.70;13.40;;;;;;;;;;5073704;28;20287;-88
2022/02/10 04:24:28;;;;;;;18.77;13.33;;;;;;;;;;5074066;28;20202;-88
2022/02/10 04:27:01;;;;;;;18.87;12.60;;;;;;;;;;5074016;28;20237;-88
2022/02/10 04:37:22;;;;;;;18.10;12.87;;;;;;;;;;5051251;28;20207;-88
2022/02/10 04:38:51;;;;;;;17.20;11.93;;;;;;;;;;5031751;28;20253;-88
2022/02/10 04:55:53;;;;;;;19.93;12.17;;;;;;;;;;5010968;28;20208;-88
2022/02/10 04:58:41;;;;;;;17.63;12.23;;;;;;;;;;4998734;28;20718;-88
2022/02/10 05:01:22;;;;;;;20.77;12.43;;;;;;;;;;4991490;28;20283;-88
2022/02/10 05:15:08;;;;;;;17.83;11.93;;;;;;;;;;4978412;28;20209;-87
2022/02/10 05:17:51;;;;;;;19.20;12.47;;;;;;;;;;4972703;28;20212;-88
2022/02/10 05:23:20;;;;;;;20.47;12.97;;;;;;;;;;4972530;28;20203;-88
2022/02/10 05:32:11;;;;;;;17.70;11.30;;;;;;;;;;4952745;29;20259;-88
2022/02/10 05:34:42;;;;;;;18.47;11.73;;;;;;;;;;4984964;28;20213;-88
2022/02/10 05:37:10;;;;;;;18.13;12.27;;;;;;;;;;4981848;28;20209;-88
2022/02/10 05:39:42;;;;;;;20.80;12.30;;;;;;;;;;4973325;28;20231;-88
2022/02/10 05:42:33;;;;;;;17.60;11.80;;;;;;;;;;4971973;28;20244;-88
2022/02/10 05:45:08;;;;;;;18.63;11.87;;;;;;;;;;4971816;28;20221;-88
2022/02/10 05:47:54;;;;;;;16.87;11.57;;;;;;;;;;4972090;28;20192;-88
2022/02/10 05:53:25;;;;;;;16.83;11.57;;;;;;;;;;5050351;28;20203;-87
2022/02/10 05:56:05;;;;;;;18.33;11.90;;;;;;;;;;5050887;28;20255;-88
2022/02/10 05:58:40;;;;;;;15.63;11.13;;;;;;;;;;5050510;28;20224;-88
2022/02/10 06:53:45;;;;;;;14.23;9.57;;;;;;;;;;4933520;29;20209;-88
2022/02/10 07:05:00;;;;;;;16.57;9.80;;;;;;;;;;5031726;28;20231;-87
2022/02/10 07:10:46;;;;;;;13.97;9.47;;;;;;;;;;4978934;28;20663;-88
2022/02/10 07:49:47;;;;;;;12.30;9.07;;;;;;;;;;5012657;28;20204;-88
2022/02/10 07:52:41;;;;;;;12.93;8.60;;;;;;;;;;5002427;28;20210;-88
2022/02/10 07:58:14;;;;;;;12.57;9.10;;;;;;;;;;5000224;28;20243;-87
2022/02/10 08:04:28;;;;;;;12.67;9.13;;;;;;;;;;5013316;28;20204;-88
2022/02/10 08:04:39;;;;;;;16.40;8.97;;;;;;;;;;5013102;28;20364;-87
2022/02/10 08:57:14;;;;;;;10.80;7.17;;;;;;;;;;5094088;28;20222;-88
2022/02/10 09:05:38;;;;;;;12.23;8.50;;;;;;;;;;5073451;28;20674;-88
2022/02/10 09:08:38;;;;;;;11.80;8.40;;;;;;;;;;5073224;28;20639;-88
2022/02/10 09:20:05;;;;;;;9.63;6.37;;;;;;;;;;5074198;28;20229;-88
2022/02/10 09:47:56;;;;;;;7.30;6.05;;;;;;;;;;4995324;28;20232;-87
2022/02/10 09:56:09;;;;;;;9.05;6.47;;;;;;;;;;5002565;28;20204;-87
2022/02/10 09:58:56;;;;;;;8.38;6.07;;;;;;;;;;5030288;28;20637;-88
2022/02/10 10:01:29;;;;;;;7.82;6.13;;;;;;;;;;5015750;28;20213;-88
2022/02/10 10:03:59;;;;;;;8.27;5.78;;;;;;;;;;5010153;28;20226;-88
2022/02/10 10:06:44;;;;;;;8.77;5.88;;;;;;;;;;5010267;28;20212;-88
2022/02/10 10:09:30;;;;;;;9.60;6.43;;;;;;;;;;5071724;28;20225;-88
2022/02/10 10:18:07;;;;;;;10.15;5.95;;;;;;;;;;5082412;28;20829;-88
2022/02/10 10:21:01;;;;;;;11.98;8.73;;;;;;;;;;5078231;28;20264;-87
2022/02/10 10:23:44;;;;;;;8.75;6.22;;;;;;;;;;5060244;28;20726;-88
2022/02/10 10:26:39;;;;;;;9.90;7.75;;;;;;;;;;5082189;28;20910;-89
2022/02/10 10:51:42;;;;;;;9.70;6.85;;;;;;;;;;5075752;28;20203;-89
2022/02/10 10:54:17;;;;;;;10.20;6.80;;;;;;;;;;5075822;28;20218;-89
2022/02/10 10:56:48;;;;;;;9.35;6.10;;;;;;;;;;5081141;28;20234;-89
2022/02/10 11:38:45;;;;;;;7.88;6.22;;;;;;;;;;5086734;28;20193;-89
2022/02/10 11:41:35;;;;;;;9.30;5.88;;;;;;;;;;5086850;28;20195;-89
2022/02/10 11:44:25;;;;;;;8.00;5.28;;;;;;;;;;5079136;28;20227;-90
2022/02/10 12:38:25;;;;;;;7.85;5.20;;;;;;;;;;5018734;28;20330;-91
2022/02/10 14:13:33;;;;;;;4.37;2.73;;;;;;;;;;5012785;28;20566;-90
2022/02/10 14:18:53;;;;;;;3.57;2.70;;;;;;;;;;5023787;28;20215;-90
2022/02/10 14:21:31;;;;;;;5.23;2.87;;;;;;;;;;5025212;28;20228;-90
2022/02/10 14:26:49;;;;;;;4.00;2.90;;;;;;;;;;5061049;28;20206;-90
2022/02/10 14:29:18;;;;;;;4.00;3.50;;;;;;;;;;5076761;28;20187;-90
2022/02/10 14:31:53;;;;;;;3.57;3.07;;;;;;;;;;5077546;28;20199;-90
2022/02/10 14:34:25;;;;;;;4.23;3.10;;;;;;;;;;5076428;28;20206;-90
2022/02/10 14:37:10;;;;;;;5.23;3.47;;;;;;;;;;5079755;28;20223;-90
2022/02/10 14:40:00;;;;;;;5.07;3.50;;;;;;;;;;5085218;28;20218;-90
2022/02/10 15:20:47;;;;;;;2.43;1.37;;;;;;;;;;4988546;28;20194;-89
2022/02/10 15:21:57;;;;;;;2.73;1.50;;;;;;;;;;4992609;28;20253;-89
2022/02/10 15:49:43;;;;;;;2.27;1.40;;;;;;;;;;5073692;28;20221;-90
2022/02/10 15:52:26;;;;;;;3.77;1.90;;;;;;;;;;5071850;28;20619;-90
2022/02/10 15:55:22;;;;;;;5.83;1.80;;;;;;;;;;5076740;28;20210;-89
2022/02/10 16:12:22;;;;;;;4.03;2.37;;;;;;;;;;4993636;28;20260;-90
2022/02/10 16:15:03;;;;;;;3.93;2.10;;;;;;;;;;4982168;28;20210;-90
2022/02/10 16:17:31;;;;;;;3.83;2.10;;;;;;;;;;4993390;28;20194;-90
2022/02/10 16:20:06;;;;;;;4.47;1.90;;;;;;;;;;4992296;28;20218;-89
2022/02/10 16:22:47;;;;;;;4.00;1.87;;;;;;;;;;4993480;28;20684;-90
2022/02/10 16:25:17;;;;;;;2.53;2.17;;;;;;;;;;4998480;28;20218;-90
2022/02/10 16:27:50;;;;;;;4.63;2.27;;;;;;;;;;4995125;28;20200;-89
2022/02/10 16:30:19;;;;;;;3.37;2.20;;;;;;;;;;4995270;28;20319;-89
2022/02/10 16:32:46;;;;;;;3.77;2.20;;;;;;;;;;4973737;28;20698;-89
2022/02/10 16:35:15;;;;;;;3.10;2.40;;;;;;;;;;4988810;28;20208;-90
2022/02/10 16:37:44;;;;;;;3.47;2.20;;;;;;;;;;4991583;28;20272;-90
2022/02/10 16:40:14;;;;;;;3.17;1.87;;;;;;;;;;4993502;28;20305;-90
2022/02/10 16:42:41;;;;;;;3.70;1.60;;;;;;;;;;4995937;28;20221;-90
2022/02/10 16:45:09;;;;;;;2.73;1.67;;;;;;;;;;5022397;28;20198;-90
2022/02/10 16:47:36;;;;;;;2.50;1.30;;;;;;;;;;5073908;28;20196;-90
2022/02/10 16:50:04;;;;;;;2.97;1.97;;;;;;;;;;5074317;28;20206;-89
2022/02/10 16:52:38;;;;;;;2.83;1.70;;;;;;;;;;5090491;28;20232;-90
2022/02/10 16:55:15;;;;;;;3.83;2.10;;;;;;;;;;5074639;28;20199;-90
2022/02/10 16:57:50;;;;;;;3.80;1.73;;;;;;;;;;5070961;28;20261;-90
2022/02/10 17:00:46;;;;;;;2.57;2.00;;;;;;;;;;5093125;28;20222;-90
2022/02/10 17:03:29;;;;;;;3.20;1.90;;;;;;;;;;5075656;28;20288;-89
2022/02/10 17:14:04;;;;;;;4.20;2.30;;;;;;;;;;5081406;28;20263;-90
2022/02/10 17:14:55;;;;;;;3.33;2.10;;;;;;;;;;5081222;28;20195;-90
2022/02/10 17:17:31;;;;;;;3.20;2.00;;;;;;;;;;5080812;28;20362;-91
2022/02/10 17:20:14;;;;;;;2.67;1.90;;;;;;;;;;5078664;28;20219;-90
2022/02/10 17:25:32;;;;;;;3.63;2.30;;;;;;;;;;5085859;28;20331;-90
2022/02/10 17:28:02;;;;;;;2.73;2.20;;;;;;;;;;5089575;28;20230;-90
2022/02/10 17:33:20;;;;;;;5.30;3.07;;;;;;;;;;5073361;28;20273;-90
2022/02/10 17:46:53;;;;;;;2.20;1.90;;;;;;;;;;5004936;28;20203;-89
2022/02/10 17:52:12;;;;;;;2.00;1.80;;;;;;;;;;5016206;28;20246;-89
2022/02/10 17:54:40;;;;;;;2.27;1.80;;;;;;;;;;5021878;28;20196;-90
2022/02/10 17:57:08;;;;;;;3.30;2.80;;;;;;;;;;5021618;28;20638;-89
2022/02/10 17:59:37;;;;;;;2.83;2.00;;;;;;;;;;5020500;28;20592;-89
2022/02/10 18:02:05;;;;;;;8.77;5.47;;;;;;;;;;5017041;28;20239;-90
2022/02/10 18:07:51;;;;;;;6.60;5.87;;;;;;;;;;4998589;28;20221;-91
2022/02/10 18:13:33;;;;;;;19.73;17.67;;;;;;;;;;4967603;28;20274;-90
2022/02/10 18:16:05;;;;;;;5.17;3.67;;;;;;;;;;4971716;28;20205;-89
2022/02/10 18:18:38;;;;;;;2.90;1.80;;;;;;;;;;4982843;28;20292;-89
2022/02/10 18:21:22;;;;;;;10.07;7.87;;;;;;;;;;5020079;28;20316;-86
2022/02/10 18:24:04;;;;;;;5.13;3.43;;;;;;;;;;5045211;28;20805;-87
2022/02/10 18:27:20;;;;;;;2.47;1.80;;;;;;;;;;5059704;28;20197;-88
2022/02/10 19:09:03;;;;;;;5.47;3.23;;;;;;;;;;5004896;28;20205;-87
2022/02/10 19:11:32;;;;;;;6.20;5.60;;;;;;;;;;5006554;28;20232;-88
2022/02/10 19:14:04;;;;;;;6.03;4.47;;;;;;;;;;5012596;28;20211;-87
2022/02/10 19:16:31;;;;;;;6.60;4.60;;;;;;;;;;5001753;28;20202;-87
2022/02/10 19:18:59;;;;;;;9.83;7.60;;;;;;;;;;5017537;28;20213;-87
2022/02/10 19:21:31;;;;;;;6.83;5.40;;;;;;;;;;5012723;28;20313;-87
2022/02/10 19:23:59;;;;;;;10.73;7.37;;;;;;;;;;5013437;28;20198;-86
2022/02/10 19:26:26;;;;;;;11.07;7.37;;;;;;;;;;5013013;28;21035;-87
2022/02/10 19:28:53;;;;;;;9.47;5.40;;;;;;;;;;5012372;28;20650;-87
2022/02/10 19:31:23;;;;;;;4.60;3.83;;;;;;;;;;5011759;28;20201;-86
2022/02/10 19:33:52;;;;;;;5.23;3.40;;;;;;;;;;5013114;28;20668;-88
2022/02/10 19:36:20;;;;;;;6.50;3.13;;;;;;;;;;5010935;28;20233;-87
2022/02/10 19:38:48;;;;;;;4.73;3.30;;;;;;;;;;5010256;28;20264;-88
2022/02/10 19:41:16;;;;;;;5.67;4.00;;;;;;;;;;5009678;28;20263;-89
2022/02/10 19:43:43;;;;;;;5.50;3.20;;;;;;;;;;5063415;28;20228;-89
2022/02/10 19:46:11;;;;;;;7.63;4.70;;;;;;;;;;5073481;28;20203;-88
2022/02/10 19:48:39;;;;;;;5.77;3.57;;;;;;;;;;5078486;28;20192;-88
2022/02/10 19:51:06;;;;;;;4.30;3.53;;;;;;;;;;5077410;28;20260;-89
2022/02/10 19:53:35;;;;;;;5.73;3.90;;;;;;;;;;5076349;28;20987;-89
2022/02/10 19:56:24;;;;;;;5.93;3.77;;;;;;;;;;5076946;28;20292;-88
2022/02/10 19:58:53;;;;;;;8.27;5.63;;;;;;;;;;5079325;28;20217;-89
2022/02/10 20:01:23;;;;;;;4.90;4.40;;;;;;;;;;5077760;28;20284;-88
2022/02/10 20:03:50;;;;;;;5.60;4.30;;;;;;;;;;5079636;28;20204;-88
2022/02/10 20:06:18;;;;;;;7.67;4.87;;;;;;;;;;5091037;28;20202;-88
2022/02/10 20:08:47;;;;;;;7.63;5.63;;;;;;;;;;5094091;28;20555;-88
2022/02/10 20:11:15;;;;;;;7.90;5.73;;;;;;;;;;5093199;28;20237;-88
2022/02/10 20:13:43;;;;;;;8.53;6.20;;;;;;;;;;5083078;28;20244;-88
2022/02/10 20:16:13;;;;;;;8.10;6.00;;;;;;;;;;5087086;28;20233;-88
2022/02/10 20:18:41;;;;;;;8.57;6.27;;;;;;;;;;5077099;28;20205;-88
2022/02/10 20:21:10;;;;;;;8.10;5.80;;;;;;;;;;5078985;28;20224;-88
2022/02/10 20:23:38;;;;;;;7.87;5.43;;;;;;;;;;5075337;28;20254;-88
2022/02/10 20:26:05;;;;;;;10.07;6.57;;;;;;;;;;5079660;28;20219;-88
2022/02/10 20:28:32;;;;;;;7.53;5.37;;;;;;;;;;5074242;28;20250;-88
2022/02/10 20:31:00;;;;;;;8.13;5.87;;;;;;;;;;5079990;28;20196;-87
2022/02/10 20:33:30;;;;;;;9.73;6.13;;;;;;;;;;5086926;28;20283;-88
2022/02/10 20:35:59;;;;;;;9.10;6.23;;;;;;;;;;5088480;28;20223;-88
2022/02/10 20:38:28;;;;;;;8.43;5.73;;;;;;;;;;5093821;28;20945;-89
2022/02/10 20:40:59;;;;;;;8.50;5.50;;;;;;;;;;5095194;28;20229;-88
2022/02/10 20:43:27;;;;;;;8.07;5.47;;;;;;;;;;5093986;28;20737;-88
2022/02/10 20:45:58;;;;;;;7.97;5.30;;;;;;;;;;5095064;28;20202;-88
2022/02/10 20:48:27;;;;;;;7.17;5.23;;;;;;;;;;5097299;28;20230;-88
2022/02/10 20:50:57;;;;;;;7.87;4.87;;;;;;;;;;5085778;28;20206;-88
2022/02/10 20:53:25;;;;;;;8.97;5.40;;;;;;;;;;5072829;28;20199;-88
2022/02/10 20:55:54;;;;;;;8.33;5.40;;;;;;;;;;5072666;28;20202;-88
2022/02/10 20:58:22;;;;;;;6.40;5.43;;;;;;;;;;5075782;28;20226;-88
2022/02/10 21:00:52;;;;;;;7.13;5.13;;;;;;;;;;5073581;28;20219;-88
2022/02/10 21:03:23;;;;;;;7.20;5.47;;;;;;;;;;5072333;28;20222;-88
2022/02/10 21:05:54;;;;;;;7.80;5.47;;;;;;;;;;5082629;28;20221;-88
2022/02/10 21:08:32;;;;;;;11.13;6.40;;;;;;;;;;5092611;28;20229;-88
2022/02/10 21:11:00;;;;;;;12.90;7.67;;;;;;;;;;5092283;28;20225;-88
2022/02/10 21:13:29;;;;;;;11.07;7.13;;;;;;;;;;5073743;28;20267;-88
2022/02/10 21:15:56;;;;;;;10.03;7.67;;;;;;;;;;5075634;28;20231;-88
2022/02/10 21:18:25;;;;;;;9.10;6.80;;;;;;;;;;5080103;28;20207;-88
2022/02/10 21:20:57;;;;;;;9.77;6.10;;;;;;;;;;5080909;28;21062;-88
2022/02/10 21:23:30;;;;;;;9.37;6.17;;;;;;;;;;5072494;28;20289;-87
2022/02/10 21:25:59;;;;;;;9.87;6.37;;;;;;;;;;5072441;28;20267;-88
2022/02/10 21:28:29;;;;;;;8.10;6.33;;;;;;;;;;5073184;28;20294;-87
2022/02/10 21:31:00;;;;;;;10.23;6.80;;;;;;;;;;5073831;28;20207;-87
2022/02/10 21:33:41;;;;;;;11.37;7.83;;;;;;;;;;5081011;28;20229;-87
2022/02/10 21:36:44;;;;;;;13.03;8.80;;;;;;;;;;5093024;28;20229;-87
2022/02/10 21:39:30;;;;;;;14.53;10.57;;;;;;;;;;5081031;28;20205;-87
2022/02/10 21:47:58;;;;;;;18.50;12.13;;;;;;;;;;5045426;28;20226;-87
2022/02/10 21:54:03;;;;;;;18.00;11.67;;;;;;;;;;5040156;28;20203;-88
2022/02/10 21:59:21;;;;;;;18.17;12.07;;;;;;;;;;5042504;28;20204;-87
2022/02/10 22:10:05;;;;;;;23.33;14.93;;;;;;;;;;5030186;28;20270;-86
2022/02/10 22:20:56;;;;;;;24.63;15.87;;;;;;;;;;5071921;28;20669;-87
2022/02/10 22:23:25;;;;;;;23.77;16.07;;;;;;;;;;5071866;28;20286;-87
2022/02/10 22:25:56;;;;;;;28.57;17.07;;;;;;;;;;5077146;28;20312;-87
2022/02/10 22:28:31;;;;;;;29.10;16.83;;;;;;;;;;5073422;28;20209;-87
2022/02/10 22:31:14;;;;;;;28.17;16.70;;;;;;;;;;5071817;28;20210;-87
2022/02/10 22:33:50;;;;;;;26.90;16.57;;;;;;;;;;5072661;28;20206;-87
2022/02/10 22:36:19;;;;;;;27.87;16.83;;;;;;;;;;5076564;28;20221;-87
2022/02/10 22:38:49;;;;;;;26.40;16.97;;;;;;;;;;5075843;28;20207;-87
2022/02/10 22:41:16;;;;;;;27.17;15.87;;;;;;;;;;5076021;28;20236;-87
2022/02/10 22:43:46;;;;;;;27.53;15.50;;;;;;;;;;5076373;28;20264;-87
2022/02/10 22:46:14;;;;;;;26.77;15.10;;;;;;;;;;5076525;28;20201;-87
2022/02/10 22:48:43;;;;;;;25.60;14.57;;;;;;;;;;5083008;28;20235;-87
2022/02/10 22:51:10;;;;;;;29.17;14.17;;;;;;;;;;5084251;28;20315;-87
2022/02/10 22:53:38;;;;;;;23.23;14.40;;;;;;;;;;5076411;28;20200;-87
2022/02/10 22:56:08;;;;;;;22.80;13.17;;;;;;;;;;5076016;28;20268;-87
2022/02/10 22:58:36;;;;;;;25.73;14.90;;;;;;;;;;5076096;28;20575;-87
2022/02/10 23:01:05;;;;;;;29.83;15.70;;;;;;;;;;5079494;28;20277;-88
2022/02/10 23:03:33;;;;;;;26.93;15.73;;;;;;;;;;5079696;28;20706;-87
2022/02/10 23:06:00;;;;;;;26.83;15.03;;;;;;;;;;5086751;28;20209;-87
2022/02/10 23:08:28;;;;;;;25.50;14.87;;;;;;;;;;5095194;28;20260;-87
2022/02/10 23:10:55;;;;;;;28.40;15.87;;;;;;;;;;5092129;28;20569;-87
2022/02/10 23:13:24;;;;;;;28.30;15.33;;;;;;;;;;5079096;28;20198;-87
2022/02/10 23:15:52;;;;;;;27.03;15.13;;;;;;;;;;5083196;28;20192;-87
2022/02/10 23:18:22;;;;;;;29.27;15.60;;;;;;;;;;5087643;28;20263;-88
2022/02/10 23:20:50;;;;;;;23.93;14.10;;;;;;;;;;5075220;28;20289;-87
2022/02/10 23:23:18;;;;;;;21.20;13.40;;;;;;;;;;5077379;28;20671;-87
2022/02/10 23:25:47;;;;;;;20.67;12.63;;;;;;;;;;5096472;28;20204;-88
2022/02/10 23:28:15;;;;;;;19.27;12.53;;;;;;;;;;5099095;28;20215;-87
2022/02/10 23:30:46;;;;;;;18.33;12.20;;;;;;;;;;5095090;28;20239;-87
2022/02/10 23:33:17;;;;;;;18.90;12.73;;;;;;;;;;5094339;28;20657;-88
2022/02/10 23:38:38;;;;;;;19.50;13.47;;;;;;;;;;5088026;28;20712;-87
2022/02/10 23:41:44;;;;;;;19.50;14.03;;;;;;;;;;5086736;28;20714;-87
2022/02/10 23:44:10;;;;;;;24.97;15.00;;;;;;;;;;5074281;28;20212;-87
2022/02/10 23:46:39;;;;;;;25.70;16.40;;;;;;;;;;5074578;28;20205;-87
2022/02/10 23:49:06;;;;;;;23.50;15.80;;;;;;;;;;5074920;28;20188;-87
2022/02/10 23:51:42;;;;;;;20.80;14.67;;;;;;;;;;5074394;28;20732;-87
2022/02/10 23:54:09;;;;;;;24.20;16.37;;;;;;;;;;5074564;28;20275;-87
2022/02/10 23:56:42;;;;;;;24.03;15.33;;;;;;;;;;5074439;28;20232;-87
2022/02/10 23:59:16;;;;;;;22.40;14.97;;;;;;;;;;5074424;28;20196;-87
